Millertown, Canada
Current Conditions -  °F | °C
As of 8:00 AM on Thursday 23 Oct 2014 (Local Time) from CYDF Reporting Station
Moderate Fog Moderate Fog  
Wind Chill: 28°   Ceiling: 500
Heat Index: 28°   Visibility: 0.37mi
Dew Point: 27°   Wind: 3mph
Humidity: 93%   Direction: 100°E
Pressure: 30.4"   Gusts: NA
Location:  48.82°N, 56.53°W
Report Text: CYDF 231000Z 10003KT 3/8SM FG VV005 M02/M03 A3040 RMK FG8 SLP297
Loading
Personal Weather Stations






























Interactive Weather Map
Tropical Storm Tracking
New forecast layout! Learn more

10-Day Weather Forecast

Advertisements
Track Severe Weather on mobile